Aviation Digital Data Service (ADDS)

Output produced by METARs form (2223 UTC 23 September 2014)
found at http://aviationweather.gov/adds/metars/
 
KPQI 231739Z 2318/2418 27012G20KT P6SM VCSH BKN040 
     FM240000 30006KT P6SM SCT200 
     FM240400 VRB03KT P6SM FEW250 
     FM240800 VRB02KT 3SM BR FEW250 
     FM241100 VRB02KT P6SM SKC 
     FM241700 23006KT P6SM SKC AMD LTD TO CLD VIS AND WIND